Time,TemperatureF,DewpointF,PressureIn,WindDirection,WindDirectionDegrees,WindSpeedMPH,WindSpeedGustMPH,Humidity,HourlyPrecipIn,Conditions,Clouds,dailyrainin,SoftwareType,DateUTC
2013-04-03 00:00:00,71.0,68.9,29.78,ENE,64,5.0,5.0,93,0.00,,---,0.00,VWS V14.01,2013-04-03 05:00:00,
2013-04-03 00:05:00,70.9,68.8,29.79,NNE,27,4.0,4.0,93,0.00,,---,0.00,VWS V14.01,2013-04-03 05:05:00,
2013-04-03 00:10:00,70.9,68.8,29.79,ENE,57,0.0,0.0,93,0.00,,---,0.00,VWS V14.01,2013-04-03 05:10:00,
2013-04-03 00:15:00,70.9,68.8,29.79,NE,52,2.0,2.0,93,0.00,,---,0.00,VWS V14.01,2013-04-03 05:15:00,
2013-04-03 00:20:00,70.9,68.8,29.79,East,83,0.0,0.0,93,0.00,,---,0.00,VWS V14.01,2013-04-03 05:20:00,
2013-04-03 00:25:00,70.8,68.7,29.79,NE,45,2.0,3.0,93,0.00,,---,0.00,VWS V14.01,2013-04-03 05:25:00,
2013-04-03 00:30:00,70.8,69.0,29.79,ENE,65,0.0,1.0,94,0.00,,---,0.00,VWS V14.01,2013-04-03 05:30:00,
2013-04-03 00:35:00,70.8,69.0,29.80,North,355,2.0,4.0,94,0.00,,---,0.00,VWS V14.01,2013-04-03 05:35:00,
2013-04-03 00:40:00,70.8,69.0,29.80,ENE,67,0.0,0.0,94,0.00,,---,0.00,VWS V14.01,2013-04-03 05:40:00,
2013-04-03 00:45:00,70.7,68.9,29.80,ENE,57,0.0,0.0,94,0.00,,---,0.00,VWS V14.01,2013-04-03 05:45:00,
2013-04-03 00:50:00,70.7,68.9,29.80,ENE,65,0.0,0.0,94,0.00,,---,0.00,VWS V14.01,2013-04-03 05:50:00,
2013-04-03 00:55:00,70.7,68.9,29.80,NNE,27,0.0,0.0,94,0.00,,---,0.00,VWS V14.01,2013-04-03 05:55:00,
2013-04-03 01:00:00,70.7,68.9,29.80,NE,48,1.0,1.0,94,0.00,,---,0.00,VWS V14.01,2013-04-03 06:00:00,
2013-04-03 01:05:00,70.6,68.8,29.79,ENE,59,1.0,1.0,94,0.00,,---,0.00,VWS V14.01,2013-04-03 06:05:00,
2013-04-03 01:10:00,70.6,68.8,29.79,NE,54,0.0,0.0,94,0.00,,---,0.00,VWS V14.01,2013-04-03 06:10:00,
2013-04-03 01:15:00,70.5,68.7,29.80,NE,56,0.0,0.0,94,0.00,,---,0.00,VWS V14.01,2013-04-03 06:15:00,
2013-04-03 01:20:00,70.6,68.8,29.80,East,100,4.0,4.0,94,0.00,,---,0.00,VWS V14.01,2013-04-03 06:20:00,
2013-04-03 01:25:00,70.6,68.8,29.80,East,101,0.0,0.0,94,0.00,,---,0.00,VWS V14.01,2013-04-03 06:25:00,
2013-04-03 01:30:00,70.6,68.8,29.80,ESE,103,0.0,0.0,94,0.00,,---,0.00,VWS V14.01,2013-04-03 06:30:00,
2013-04-03 01:35:00,70.6,68.8,29.81,ENE,68,0.0,0.0,94,0.00,,---,0.00,VWS V14.01,2013-04-03 06:35:00,
2013-04-03 01:40:00,70.6,68.8,29.81,ENE,70,0.0,0.0,94,0.00,,---,0.00,VWS V14.01,2013-04-03 06:40:00,
2013-04-03 01:45:00,70.6,68.8,29.81,NNE,17,4.0,4.0,94,0.00,,---,0.00,VWS V14.01,2013-04-03 06:45:00,
2013-04-03 01:50:00,70.6,68.8,29.81,NE,52,0.0,0.0,94,0.00,,---,0.00,VWS V14.01,2013-04-03 06:50:00,
2013-04-03 01:55:00,70.7,68.9,29.81,NNE,21,7.0,10.0,94,0.00,,---,0.00,VWS V14.01,2013-04-03 06:55:00,
2013-04-03 02:00:00,70.6,68.8,29.81,NNE,18,9.0,9.0,94,0.00,,---,0.00,VWS V14.01,2013-04-03 07:00:00,
2013-04-03 02:05:00,70.5,68.7,29.80,NNE,16,5.0,5.0,94,0.00,,---,0.00,VWS V14.01,2013-04-03 07:05:00,
2013-04-03 02:10:00,70.5,68.7,29.80,ENE,69,0.0,0.0,94,0.00,,---,0.00,VWS V14.01,2013-04-03 07:10:00,
2013-04-03 02:15:00,70.5,68.7,29.80,NE,42,3.0,6.0,94,0.00,,---,0.00,VWS V14.01,2013-04-03 07:15:00,
2013-04-03 02:20:00,70.6,68.8,29.81,ENE,57,2.0,9.0,94,0.00,,---,0.00,VWS V14.01,2013-04-03 07:20:00,
2013-04-03 02:25:00,70.7,68.9,29.81,NNE,31,2.0,2.0,94,0.00,,---,0.00,VWS V14.01,2013-04-03 07:25:00,
2013-04-03 02:30:00,70.7,68.9,29.81,NNE,24,1.0,10.0,94,0.00,,---,0.00,VWS V14.01,2013-04-03 07:30:00,
2013-04-03 02:35:00,70.8,69.0,29.80,North,355,4.0,11.0,94,0.00,,---,0.00,VWS V14.01,2013-04-03 07:35:00,
2013-04-03 02:40:00,70.8,69.0,29.81,NNE,17,3.0,7.0,94,0.00,,---,0.00,VWS V14.01,2013-04-03 07:40:00,
2013-04-03 02:45:00,70.8,69.0,29.80,East,88,0.0,13.0,94,0.00,,---,0.00,VWS V14.01,2013-04-03 07:45:00,
2013-04-03 02:50:00,70.8,69.3,29.80,ENE,77,5.0,11.0,95,0.00,,---,0.00,VWS V14.01,2013-04-03 07:50:00,
2013-04-03 02:55:00,70.9,69.4,29.80,East,80,2.0,5.0,95,0.00,,---,0.00,VWS V14.01,2013-04-03 07:55:00,
2013-04-03 03:00:00,70.9,69.4,29.80,NNE,23,2.0,12.0,95,0.00,,---,0.00,VWS V14.01,2013-04-03 08:00:00,
2013-04-03 03:05:00,70.9,69.4,29.80,NNW,343,1.0,11.0,95,0.00,,---,0.00,VWS V14.01,2013-04-03 08:05:00,
2013-04-03 03:10:00,70.8,69.0,29.79,NE,49,12.0,15.0,94,0.00,,---,0.00,VWS V14.01,2013-04-03 08:10:00,
2013-04-03 03:15:00,70.6,68.8,29.79,NNE,22,5.0,14.0,94,0.00,,---,0.00,VWS V14.01,2013-04-03 08:15:00,
2013-04-03 03:20:00,70.4,68.6,29.79,North,360,7.0,13.0,94,0.00,,---,0.00,VWS V14.01,2013-04-03 08:20:00,
2013-04-03 03:25:00,69.6,67.8,29.79,NNE,29,10.0,16.0,94,0.00,,---,0.00,VWS V14.01,2013-04-03 08:25:00,
2013-04-03 03:30:00,68.7,66.6,29.79,North,360,5.0,13.0,93,0.00,,---,0.00,VWS V14.01,2013-04-03 08:30:00,
2013-04-03 03:35:00,67.8,65.7,29.79,NNE,13,6.0,19.0,93,0.00,,---,0.00,VWS V14.01,2013-04-03 08:35:00,
2013-04-03 03:40:00,67.4,65.3,29.78,NNE,30,13.0,16.0,93,0.00,,---,0.00,VWS V14.01,2013-04-03 08:40:00,
2013-04-03 03:45:00,67.3,65.2,29.78,NE,34,8.0,12.0,93,0.00,,---,0.00,VWS V14.01,2013-04-03 08:45:00,
2013-04-03 03:50:00,67.4,65.3,29.78,ENE,65,3.0,5.0,93,0.00,,---,0.00,VWS V14.01,2013-04-03 08:50:00,
2013-04-03 03:55:00,67.4,65.3,29.77,NE,48,0.0,3.0,93,0.00,,---,0.00,VWS V14.01,2013-04-03 08:55:00,
2013-04-03 04:00:00,67.4,65.3,29.77,NNE,13,5.0,5.0,93,0.00,,---,0.00,VWS V14.01,2013-04-03 09:00:00,
2013-04-03 04:05:00,67.3,65.2,29.77,ENE,63,2.0,6.0,93,0.00,,---,0.00,VWS V14.01,2013-04-03 09:05:00,
2013-04-03 04:10:00,67.3,65.2,29.77,East,83,0.0,3.0,93,0.00,,---,0.00,VWS V14.01,2013-04-03 09:10:00,
2013-04-03 04:15:00,67.2,64.8,29.77,NNE,22,2.0,7.0,92,0.00,,---,0.00,VWS V14.01,2013-04-03 09:15:00,
2013-04-03 04:20:00,67.0,64.6,29.77,NE,52,4.0,7.0,92,0.00,,---,0.00,VWS V14.01,2013-04-03 09:20:00,
2013-04-03 04:25:00,67.1,64.4,29.77,NNE,19,2.0,6.0,91,0.00,,---,0.00,VWS V14.01,2013-04-03 09:25:00,
2013-04-03 04:30:00,67.1,64.1,29.77,North,360,3.0,4.0,90,0.00,,---,0.00,VWS V14.01,2013-04-03 09:30:00,
2013-04-03 04:35:00,67.0,64.0,29.77,NNE,19,5.0,7.0,90,0.00,,---,0.00,VWS V14.01,2013-04-03 09:35:00,
2013-04-03 04:40:00,67.0,63.7,29.77,NNE,26,7.0,7.0,89,0.00,,---,0.00,VWS V14.01,2013-04-03 09:40:00,
2013-04-03 04:45:00,66.9,63.6,29.77,NNE,15,0.0,4.0,89,0.00,,---,0.00,VWS V14.01,2013-04-03 09:45:00,
2013-04-03 04:50:00,66.8,63.1,29.77,North,360,4.0,9.0,88,0.00,,---,0.00,VWS V14.01,2013-04-03 09:50:00,
2013-04-03 04:55:00,66.8,63.1,29.77,NNE,28,3.0,5.0,88,0.00,,---,0.00,VWS V14.01,2013-04-03 09:55:00,
2013-04-03 05:00:00,66.7,63.0,29.77,NNE,26,0.0,2.0,88,0.00,,---,0.00,VWS V14.01,2013-04-03 10:00:00,
2013-04-03 05:05:00,66.6,62.9,29.77,NNE,26,0.0,0.0,88,0.00,,---,0.00,VWS V14.01,2013-04-03 10:05:00,
2013-04-03 05:10:00,66.5,62.5,29.77,NE,42,0.0,1.0,87,0.00,,---,0.00,VWS V14.01,2013-04-03 10:10:00,
2013-04-03 05:15:00,66.3,62.3,29.76,NE,41,0.0,0.0,87,0.00,,---,0.00,VWS V14.01,2013-04-03 10:15:00,
2013-04-03 05:20:00,66.1,62.1,29.76,NE,42,0.0,0.0,87,0.00,,---,0.00,VWS V14.01,2013-04-03 10:20:00,
2013-04-03 05:25:00,65.9,61.9,29.76,NE,42,0.0,0.0,87,0.00,,---,0.00,VWS V14.01,2013-04-03 10:25:00,
2013-04-03 05:30:00,65.7,61.7,29.76,ENE,59,3.0,3.0,87,0.00,,---,0.00,VWS V14.01,2013-04-03 10:30:00,
2013-04-03 05:35:00,65.6,61.6,29.76,ENE,66,2.0,4.0,87,0.00,,---,0.00,VWS V14.01,2013-04-03 10:35:00,
2013-04-03 05:39:00,65.7,61.7,29.76,NE,53,4.0,4.0,87,0.00,,---,0.00,VWS V14.01,2013-04-03 10:39:00,
2013-04-03 05:44:00,65.7,61.7,29.76,NE,42,5.0,5.0,87,0.00,,---,0.00,VWS V14.01,2013-04-03 10:44:00,
2013-04-03 05:49:00,65.7,61.4,29.76,ENE,68,0.0,3.0,86,0.00,,---,0.00,VWS V14.01,2013-04-03 10:49:00,
2013-04-03 05:54:00,65.7,61.4,29.76,ENE,60,0.0,0.0,86,0.00,,---,0.00,VWS V14.01,2013-04-03 10:54:00,
2013-04-03 05:59:00,65.7,61.4,29.76,ENE,60,0.0,0.0,86,0.00,,---,0.00,VWS V14.01,2013-04-03 10:59:00,
2013-04-03 06:04:00,65.7,61.4,29.76,ENE,60,0.0,0.0,86,0.00,,---,0.00,VWS V14.01,2013-04-03 11:04:00,
2013-04-03 06:09:00,65.6,61.3,29.77,ENE,61,0.0,0.0,86,0.00,,---,0.00,VWS V14.01,2013-04-03 11:09:00,
2013-04-03 06:14:00,65.6,61.3,29.77,ENE,63,0.0,0.0,86,0.00,,---,0.00,VWS V14.01,2013-04-03 11:14:00,
2013-04-03 06:19:00,65.6,61.6,29.77,ENE,64,0.0,3.0,87,0.00,,---,0.00,VWS V14.01,2013-04-03 11:19:00,
2013-04-03 06:24:00,65.5,61.5,29.77,ENE,63,3.0,4.0,87,0.00,,---,0.00,VWS V14.01,2013-04-03 11:24:00,
2013-04-03 06:29:00,65.6,61.6,29.78,ENE,57,2.0,2.0,87,0.00,,---,0.00,VWS V14.01,2013-04-03 11:29:00,
2013-04-03 06:34:00,65.7,61.7,29.78,North,11,4.0,9.0,87,0.00,,---,0.00,VWS V14.01,2013-04-03 11:34:00,
2013-04-03 06:39:00,65.9,61.9,29.79,NNE,27,3.0,6.0,87,0.00,,---,0.00,VWS V14.01,2013-04-03 11:39:00,
2013-04-03 06:44:00,66.1,62.1,29.80,NNE,28,8.0,11.0,87,0.00,,---,0.00,VWS V14.01,2013-04-03 11:44:00,
2013-04-03 06:49:00,66.4,62.1,29.81,NNE,17,17.0,17.0,86,0.00,,---,0.00,VWS V14.01,2013-04-03 11:49:00,
2013-04-03 06:54:00,66.6,62.0,29.81,NNE,16,4.0,9.0,85,0.00,,---,0.00,VWS V14.01,2013-04-03 11:54:00,
2013-04-03 06:59:00,66.6,62.0,29.81,NNE,28,10.0,13.0,85,0.00,,---,0.00,VWS V14.01,2013-04-03 11:59:00,
2013-04-03 07:04:00,66.6,62.0,29.82,NNE,32,6.0,7.0,85,0.00,,---,0.00,VWS V14.01,2013-04-03 12:04:00,
2013-04-03 07:09:00,66.6,62.0,29.82,NNE,31,7.0,10.0,85,0.00,,---,0.00,VWS V14.01,2013-04-03 12:09:00,
2013-04-03 07:14:00,66.6,62.0,29.82,NNE,17,7.0,14.0,85,0.00,,---,0.00,VWS V14.01,2013-04-03 12:14:00,
2013-04-03 07:19:00,66.5,61.9,29.83,NNE,22,14.0,17.0,85,0.00,,---,0.00,VWS V14.01,2013-04-03 12:19:00,
2013-04-03 07:24:00,66.4,61.8,29.83,NNE,13,7.0,10.0,85,0.00,,---,0.00,VWS V14.01,2013-04-03 12:24:00,
2013-04-03 07:29:00,66.2,61.9,29.83,NE,38,5.0,15.0,86,0.00,,---,0.00,VWS V14.01,2013-04-03 12:29:00,
2013-04-03 07:34:00,65.9,61.6,29.83,NNE,30,6.0,12.0,86,0.00,,---,0.00,VWS V14.01,2013-04-03 12:34:00,
2013-04-03 07:39:00,65.7,61.4,29.83,North,9,4.0,10.0,86,0.00,,---,0.00,VWS V14.01,2013-04-03 12:39:00,
2013-04-03 07:44:00,65.5,61.2,29.83,NNW,346,6.0,10.0,86,0.00,,---,0.00,VWS V14.01,2013-04-03 12:44:00,
2013-04-03 07:49:00,65.3,61.0,29.84,North,360,3.0,10.0,86,0.00,,---,0.00,VWS V14.01,2013-04-03 12:49:00,
2013-04-03 07:54:00,65.1,60.8,29.84,North,355,5.0,7.0,86,0.00,,---,0.00,VWS V14.01,2013-04-03 12:54:00,
2013-04-03 07:59:00,64.9,60.6,29.84,North,349,12.0,13.0,86,0.00,,---,0.00,VWS V14.01,2013-04-03 12:59:00,
2013-04-03 08:04:00,64.7,60.4,29.84,NNE,19,10.0,12.0,86,0.00,,---,0.00,VWS V14.01,2013-04-03 13:04:00,
2013-04-03 08:09:00,64.6,60.3,29.84,North,9,8.0,14.0,86,0.00,,---,0.00,VWS V14.01,2013-04-03 13:09:00,
2013-04-03 08:14:00,64.6,60.3,29.84,North,9,12.0,15.0,86,0.00,,---,0.00,VWS V14.01,2013-04-03 13:14:00,
2013-04-03 08:19:00,64.5,60.2,29.83,North,11,9.0,13.0,86,0.00,,---,0.00,VWS V14.01,2013-04-03 13:19:00,
2013-04-03 08:24:00,64.6,60.3,29.85,NNE,16,4.0,10.0,86,0.00,,---,0.00,VWS V14.01,2013-04-03 13:24:00,
2013-04-03 08:29:00,64.7,60.4,29.86,North,10,10.0,10.0,86,0.00,,---,0.00,VWS V14.01,2013-04-03 13:29:00,
2013-04-03 08:34:00,64.8,60.5,29.86,NNE,17,16.0,16.0,86,0.00,,---,0.00,VWS V14.01,2013-04-03 13:34:00,
2013-04-03 08:39:00,64.9,60.6,29.87,NNE,24,5.0,10.0,86,0.00,,---,0.00,VWS V14.01,2013-04-03 13:39:00,
2013-04-03 08:44:00,64.9,60.3,29.87,North,350,9.0,14.0,85,0.00,,---,0.00,VWS V14.01,2013-04-03 13:44:00,
2013-04-03 08:49:00,64.9,60.3,29.87,North,360,5.0,8.0,85,0.00,,---,0.00,VWS V14.01,2013-04-03 13:49:00,
2013-04-03 08:54:00,64.9,60.0,29.87,NNW,346,1.0,5.0,84,0.00,,---,0.00,VWS V14.01,2013-04-03 13:54:00,
2013-04-03 08:59:00,65.0,60.4,29.87,NNE,17,5.0,5.0,85,0.00,,---,0.00,VWS V14.01,2013-04-03 13:59:00,
2013-04-03 09:04:00,65.0,60.0,29.87,North,355,2.0,2.0,84,0.00,,---,0.00,VWS V14.01,2013-04-03 14:04:00,
2013-04-03 09:09:00,65.0,60.0,29.88,NNW,340,5.0,6.0,84,0.00,,---,0.00,VWS V14.01,2013-04-03 14:09:00,
2013-04-03 09:14:00,65.0,60.0,29.87,NNW,342,6.0,8.0,84,0.00,,---,0.00,VWS V14.01,2013-04-03 14:14:00,
2013-04-03 09:19:00,65.0,60.4,29.87,North,11,2.0,4.0,85,0.00,,---,0.00,VWS V14.01,2013-04-03 14:19:00,
2013-04-03 09:24:00,65.0,60.0,29.87,NNE,13,6.0,9.0,84,0.00,,---,0.00,VWS V14.01,2013-04-03 14:24:00,
2013-04-03 09:29:00,65.0,60.0,29.88,NNE,20,6.0,6.0,84,0.00,,---,0.00,VWS V14.01,2013-04-03 14:29:00,
2013-04-03 09:34:00,65.0,60.0,29.89,NNW,344,11.0,11.0,84,0.00,,---,0.00,VWS V14.01,2013-04-03 14:34:00,
2013-04-03 09:39:00,64.9,60.0,29.88,North,5,9.0,9.0,84,0.00,,---,0.00,VWS V14.01,2013-04-03 14:39:00,
2013-04-03 09:44:00,64.9,60.0,29.88,NNW,338,6.0,6.0,84,0.00,,---,0.00,VWS V14.01,2013-04-03 14:44:00,
2013-04-03 09:49:00,64.9,60.3,29.88,North,355,5.0,11.0,85,0.00,,---,0.00,VWS V14.01,2013-04-03 14:49:00,
2013-04-03 09:54:00,65.0,60.4,29.89,North,360,5.0,5.0,85,0.00,,---,0.00,VWS V14.01,2013-04-03 14:54:00,
2013-04-03 09:59:00,65.0,60.0,29.88,NNE,17,9.0,9.0,84,0.00,,---,0.00,VWS V14.01,2013-04-03 14:59:00,
2013-04-03 10:04:00,65.1,60.2,29.88,North,5,7.0,9.0,84,0.00,,---,0.00,VWS V14.01,2013-04-03 15:04:00,
2013-04-03 10:09:00,65.1,60.2,29.88,North,355,7.0,13.0,84,0.00,,---,0.00,VWS V14.01,2013-04-03 15:09:00,
2013-04-03 10:14:00,65.2,60.2,29.88,NNE,20,9.0,15.0,84,0.00,,---,0.00,VWS V14.01,2013-04-03 15:14:00,
2013-04-03 10:19:00,65.2,60.2,29.89,North,5,3.0,14.0,84,0.00,,---,0.00,VWS V14.01,2013-04-03 15:19:00,
2013-04-03 10:24:00,65.3,60.7,29.88,North,360,5.0,13.0,85,0.00,,---,0.00,VWS V14.01,2013-04-03 15:24:00,
2013-04-03 10:29:00,65.4,60.8,29.88,NNE,19,11.0,11.0,85,0.00,,---,0.00,VWS V14.01,2013-04-03 15:29:00,
2013-04-03 10:34:00,65.6,61.0,29.89,NNE,31,1.0,9.0,85,0.00,,---,0.00,VWS V14.01,2013-04-03 15:34:00,
2013-04-03 10:39:00,65.6,60.6,29.89,NNE,25,11.0,13.0,84,0.00,,---,0.00,VWS V14.01,2013-04-03 15:39:00,
2013-04-03 10:44:00,65.7,60.7,29.89,NNE,27,10.0,10.0,84,0.00,,---,0.00,VWS V14.01,2013-04-03 15:44:00,
2013-04-03 10:49:00,65.9,60.9,29.89,NE,45,2.0,2.0,84,0.00,,---,0.00,VWS V14.01,2013-04-03 15:49:00,
2013-04-03 10:54:00,66.2,61.2,29.89,North,355,6.0,7.0,84,0.00,,---,0.00,VWS V14.01,2013-04-03 15:54:00,
2013-04-03 10:59:00,66.4,61.4,29.88,North,11,6.0,15.0,84,0.00,,---,0.00,VWS V14.01,2013-04-03 15:59:00,
2013-04-03 11:04:00,66.7,61.7,29.88,NNW,331,13.0,14.0,84,0.00,,---,0.00,VWS V14.01,2013-04-03 16:04:00,
2013-04-03 11:09:00,67.1,61.8,29.87,North,355,4.0,13.0,83,0.00,,---,0.00,VWS V14.01,2013-04-03 16:09:00,
2013-04-03 11:14:00,67.3,62.0,29.89,North,355,5.0,7.0,83,0.00,,---,0.00,VWS V14.01,2013-04-03 16:14:00,
2013-04-03 11:19:00,67.4,61.7,29.89,NNE,17,3.0,11.0,82,0.00,,---,0.00,VWS V14.01,2013-04-03 16:19:00,
2013-04-03 11:24:00,67.4,61.7,29.90,NNE,13,6.0,11.0,82,0.00,,---,0.00,VWS V14.01,2013-04-03 16:24:00,
2013-04-03 11:29:00,67.3,61.6,29.88,North,350,0.0,5.0,82,0.00,,---,0.00,VWS V14.01,2013-04-03 16:29:00,
2013-04-03 11:34:00,67.3,62.0,29.89,NNE,13,9.0,9.0,83,0.00,,---,0.00,VWS V14.01,2013-04-03 16:34:00,
2013-04-03 11:39:00,67.4,61.7,29.89,NNE,15,7.0,10.0,82,0.00,,---,0.00,VWS V14.01,2013-04-03 16:39:00,
2013-04-03 11:44:00,67.6,61.9,29.89,NE,39,5.0,5.0,82,0.00,,---,0.00,VWS V14.01,2013-04-03 16:44:00,
2013-04-03 11:49:00,67.8,61.8,29.89,NE,35,4.0,5.0,81,0.00,,---,0.00,VWS V14.01,2013-04-03 16:49:00,
2013-04-03 11:54:00,67.9,61.9,29.90,ENE,63,3.0,3.0,81,0.00,,---,0.00,VWS V14.01,2013-04-03 16:54:00,
2013-04-03 11:59:00,68.2,62.2,29.89,NNE,14,6.0,10.0,81,0.00,,---,0.00,VWS V14.01,2013-04-03 16:59:00,
2013-04-03 12:04:00,68.4,62.3,29.89,NE,38,3.0,5.0,81,0.00,,---,0.00,VWS V14.01,2013-04-03 17:04:00,
2013-04-03 12:10:00,68.8,62.7,29.87,NNE,13,11.0,12.0,81,0.00,,---,0.00,VWS V14.01,2013-04-03 17:10:00,
2013-04-03 12:15:00,69.2,62.8,29.87,North,360,4.0,9.0,80,0.00,,---,0.00,VWS V14.01,2013-04-03 17:15:00,
2013-04-03 12:20:00,69.5,62.7,29.87,NNE,24,14.0,14.0,79,0.00,,---,0.00,VWS V14.01,2013-04-03 17:20:00,
2013-04-03 12:24:00,69.6,62.4,29.87,NNE,12,6.0,9.0,78,0.00,,---,0.00,VWS V14.01,2013-04-03 17:24:00,
2013-04-03 12:30:00,69.7,62.5,29.87,NNE,18,7.0,8.0,78,0.00,,---,0.00,VWS V14.01,2013-04-03 17:30:00,
2013-04-03 12:35:00,69.8,62.6,29.86,NNE,22,12.0,15.0,78,0.00,,---,0.00,VWS V14.01,2013-04-03 17:35:00,
2013-04-03 12:40:00,69.7,62.5,29.87,NNE,15,10.0,12.0,78,0.00,,---,0.00,VWS V14.01,2013-04-03 17:40:00,
2013-04-03 12:45:00,69.8,62.3,29.88,North,5,4.0,7.0,77,0.00,,---,0.00,VWS V14.01,2013-04-03 17:45:00,
2013-04-03 12:50:00,69.9,62.4,29.88,NNE,24,2.0,3.0,77,0.00,,---,0.00,VWS V14.01,2013-04-03 17:50:00,
2013-04-03 12:55:00,70.1,62.6,29.88,North,355,2.0,3.0,77,0.00,,---,0.00,VWS V14.01,2013-04-03 17:55:00,
2013-04-03 13:00:00,70.2,62.3,29.88,North,9,5.0,9.0,76,0.00,,---,0.00,VWS V14.01,2013-04-03 18:00:00,
2013-04-03 13:05:00,70.2,62.3,29.88,NNE,15,4.0,7.0,76,0.00,,---,0.00,VWS V14.01,2013-04-03 18:05:00,
2013-04-03 13:10:00,70.3,62.4,29.88,NNE,18,4.0,9.0,76,0.00,,---,0.00,VWS V14.01,2013-04-03 18:10:00,
2013-04-03 13:15:00,70.5,62.6,29.87,North,10,4.0,7.0,76,0.00,,---,0.00,VWS V14.01,2013-04-03 18:15:00,
2013-04-03 13:20:00,70.7,62.8,29.88,NNE,17,7.0,7.0,76,0.00,,---,0.00,VWS V14.01,2013-04-03 18:20:00,
2013-04-03 13:25:00,71.4,63.8,29.87,NE,40,4.0,6.0,77,0.00,,---,0.00,VWS V14.01,2013-04-03 18:25:00,
2013-04-03 13:30:00,72.6,63.8,29.88,ENE,63,3.0,4.0,74,0.00,,---,0.00,VWS V14.01,2013-04-03 18:30:00,
2013-04-03 13:35:00,73.5,63.9,29.88,NNW,337,6.0,6.0,72,0.00,,---,0.00,VWS V14.01,2013-04-03 18:35:00,
2013-04-03 13:40:00,73.7,63.3,29.89,ENE,69,5.0,7.0,70,0.00,,---,0.00,VWS V14.01,2013-04-03 18:40:00,
2013-04-03 13:45:00,73.5,63.1,29.89,North,10,11.0,12.0,70,0.00,,---,0.00,VWS V14.01,2013-04-03 18:45:00,
2013-04-03 13:50:00,73.3,62.9,29.89,ENE,61,10.0,10.0,70,0.00,,---,0.00,VWS V14.01,2013-04-03 18:50:00,
2013-04-03 13:55:00,73.1,62.7,29.89,NNE,22,4.0,5.0,70,0.00,,---,0.00,VWS V14.01,2013-04-03 18:55:00,
2013-04-03 14:00:00,72.9,62.5,29.88,NNW,346,0.0,0.0,70,0.00,,---,0.00,VWS V14.01,2013-04-03 19:00:00,
2013-04-03 14:05:00,72.7,62.8,29.88,NE,54,0.0,2.0,71,0.00,,---,0.00,VWS V14.01,2013-04-03 19:05:00,
2013-04-03 14:10:00,72.7,63.5,29.88,ENE,57,0.0,0.0,73,0.00,,---,0.00,VWS V14.01,2013-04-03 19:10:00,
2013-04-03 14:15:00,72.8,64.0,29.88,ENE,76,1.0,2.0,74,0.00,,---,0.00,VWS V14.01,2013-04-03 19:15:00,
2013-04-03 14:20:00,73.0,64.2,29.88,East,80,3.0,5.0,74,0.00,,---,0.00,VWS V14.01,2013-04-03 19:20:00,
2013-04-03 14:25:00,73.4,64.2,29.88,East,83,4.0,10.0,73,0.00,,---,0.00,VWS V14.01,2013-04-03 19:25:00,
2013-04-03 14:30:00,73.2,64.0,29.88,East,80,0.0,4.0,73,0.00,,---,0.00,VWS V14.01,2013-04-03 19:30:00,
2013-04-03 14:35:00,73.2,64.4,29.87,ENE,68,1.0,4.0,74,0.00,,---,0.00,VWS V14.01,2013-04-03 19:35:00,
2013-04-03 14:40:00,73.4,63.8,29.87,ESE,105,9.0,9.0,72,0.00,,---,0.00,VWS V14.01,2013-04-03 19:40:00,
2013-04-03 14:45:00,73.6,64.8,29.87,ENE,68,2.0,4.0,74,0.00,,---,0.00,VWS V14.01,2013-04-03 19:45:00,
2013-04-03 14:50:00,74.2,64.6,29.86,ENE,67,4.0,6.0,72,0.00,,---,0.00,VWS V14.01,2013-04-03 19:50:00,
2013-04-03 14:55:00,74.9,65.3,29.86,NE,53,4.0,5.0,72,0.00,,---,0.00,VWS V14.01,2013-04-03 19:55:00,
2013-04-03 15:00:00,75.7,64.8,29.86,ENE,71,6.0,7.0,69,0.00,,---,0.00,VWS V14.01,2013-04-03 20:00:00,
2013-04-03 15:05:00,75.9,65.0,29.86,NNE,24,1.0,6.0,69,0.00,,---,0.00,VWS V14.01,2013-04-03 20:05:00,
2013-04-03 15:10:00,76.3,65.4,29.86,ENE,74,0.0,5.0,69,0.00,,---,0.00,VWS V14.01,2013-04-03 20:10:00,
2013-04-03 15:15:00,76.5,65.2,29.87,NW,306,7.0,7.0,68,0.00,,---,0.00,VWS V14.01,2013-04-03 20:15:00,
2013-04-03 15:20:00,76.6,65.3,29.86,NNE,17,7.0,10.0,68,0.00,,---,0.00,VWS V14.01,2013-04-03 20:20:00,
2013-04-03 15:25:00,76.4,65.1,29.86,ENE,60,4.0,5.0,68,0.00,,---,0.00,VWS V14.01,2013-04-03 20:25:00,
2013-04-03 15:30:00,76.1,64.8,29.86,NNW,347,1.0,2.0,68,0.00,,---,0.00,VWS V14.01,2013-04-03 20:30:00,
2013-04-03 15:35:00,76.0,64.7,29.86,ENE,59,2.0,6.0,68,0.00,,---,0.00,VWS V14.01,2013-04-03 20:35:00,
2013-04-03 15:40:00,76.0,65.1,29.86,ENE,76,2.0,2.0,69,0.00,,---,0.00,VWS V14.01,2013-04-03 20:40:00,
2013-04-03 15:45:00,75.9,64.6,29.85,NNE,14,9.0,9.0,68,0.00,,---,0.00,VWS V14.01,2013-04-03 20:45:00,
2013-04-03 15:50:00,75.6,64.7,29.86,North,360,0.0,5.0,69,0.00,,---,0.00,VWS V14.01,2013-04-03 20:50:00,
2013-04-03 15:55:00,75.7,63.5,29.85,North,11,9.0,9.0,66,0.00,,---,0.00,VWS V14.01,2013-04-03 20:55:00,
2013-04-03 16:00:00,75.8,63.2,29.86,NNE,25,3.0,11.0,65,0.00,,---,0.00,VWS V14.01,2013-04-03 21:00:00,
2013-04-03 16:05:00,75.8,62.8,29.86,North,360,14.0,16.0,64,0.00,,---,0.00,VWS V14.01,2013-04-03 21:05:00,
2013-04-03 16:10:00,76.0,63.0,29.85,NW,314,0.0,7.0,64,0.00,,---,0.00,VWS V14.01,2013-04-03 21:10:00,
2013-04-03 16:15:00,76.1,62.6,29.86,North,360,12.0,15.0,63,0.00,,---,0.00,VWS V14.01,2013-04-03 21:15:00,
2013-04-03 16:20:00,75.6,62.1,29.86,North,360,5.0,11.0,63,0.00,,---,0.00,VWS V14.01,2013-04-03 21:20:00,
2013-04-03 16:25:00,75.5,62.5,29.86,North,11,6.0,6.0,64,0.00,,---,0.00,VWS V14.01,2013-04-03 21:25:00,
2013-04-03 16:30:00,75.6,62.6,29.86,NNE,24,6.0,7.0,64,0.00,,---,0.00,VWS V14.01,2013-04-03 21:30:00,
2013-04-03 16:35:00,75.7,62.7,29.86,NNE,26,7.0,10.0,64,0.00,,---,0.00,VWS V14.01,2013-04-03 21:35:00,
2013-04-03 16:40:00,75.3,62.3,29.86,NNW,344,1.0,1.0,64,0.00,,---,0.00,VWS V14.01,2013-04-03 21:40:00,
2013-04-03 16:45:00,75.3,62.3,29.86,NNW,336,5.0,5.0,64,0.00,,---,0.00,VWS V14.01,2013-04-03 21:45:00,
2013-04-03 16:50:00,75.5,62.5,29.86,North,360,9.0,9.0,64,0.00,,---,0.00,VWS V14.01,2013-04-03 21:50:00,
2013-04-03 16:55:00,75.5,62.5,29.86,North,9,5.0,5.0,64,0.00,,---,0.00,VWS V14.01,2013-04-03 21:55:00,
2013-04-03 17:00:00,75.2,62.2,29.86,NE,38,9.0,9.0,64,0.00,,---,0.00,VWS V14.01,2013-04-03 22:00:00,
2013-04-03 17:05:00,75.3,62.3,29.86,North,9,7.0,11.0,64,0.00,,---,0.00,VWS V14.01,2013-04-03 22:05:00,
2013-04-03 17:10:00,75.2,61.8,29.86,NE,34,10.0,13.0,63,0.00,,---,0.00,VWS V14.01,2013-04-03 22:10:00,
2013-04-03 17:15:00,75.3,62.3,29.86,NNE,22,10.0,13.0,64,0.00,,---,0.00,VWS V14.01,2013-04-03 22:15:00,
2013-04-03 17:20:00,75.3,62.3,29.86,NNE,14,9.0,11.0,64,0.00,,---,0.00,VWS V14.01,2013-04-03 22:20:00,
2013-04-03 17:25:00,75.3,61.8,29.86,North,355,7.0,7.0,63,0.00,,---,0.00,VWS V14.01,2013-04-03 22:25:00,
2013-04-03 17:30:00,75.2,62.2,29.86,NNW,339,3.0,4.0,64,0.00,,---,0.00,VWS V14.01,2013-04-03 22:30:00,
2013-04-03 17:35:00,75.5,62.0,29.86,NNW,338,6.0,6.0,63,0.00,,---,0.00,VWS V14.01,2013-04-03 22:35:00,
2013-04-03 17:40:00,75.7,61.8,29.86,North,11,5.0,7.0,62,0.00,,---,0.00,VWS V14.01,2013-04-03 22:40:00,
2013-04-03 17:45:00,75.7,62.2,29.87,North,9,11.0,11.0,63,0.00,,---,0.00,VWS V14.01,2013-04-03 22:45:00,
2013-04-03 17:50:00,75.8,62.3,29.86,North,360,9.0,9.0,63,0.00,,---,0.00,VWS V14.01,2013-04-03 22:50:00,
2013-04-03 17:55:00,76.0,62.0,29.86,NNW,341,2.0,11.0,62,0.00,,---,0.00,VWS V14.01,2013-04-03 22:55:00,
2013-04-03 18:00:00,76.0,62.0,29.86,NNW,345,13.0,13.0,62,0.00,,---,0.00,VWS V14.01,2013-04-03 23:00:00,
2013-04-03 18:05:00,75.5,61.6,29.87,North,350,9.0,10.0,62,0.00,,---,0.00,VWS V14.01,2013-04-03 23:05:00,
2013-04-03 18:10:00,74.9,61.5,29.87,NW,324,3.0,7.0,63,0.00,,---,0.00,VWS V14.01,2013-04-03 23:10:00,
2013-04-03 18:15:00,74.1,60.3,29.88,North,360,12.0,15.0,62,0.00,,---,0.00,VWS V14.01,2013-04-03 23:15:00,
2013-04-03 18:20:00,73.0,60.1,29.88,NNW,337,12.0,15.0,64,0.00,,---,0.00,VWS V14.01,2013-04-03 23:20:00,
2013-04-03 18:25:00,72.2,59.8,29.88,NW,312,12.0,19.0,65,0.00,,---,0.00,VWS V14.01,2013-04-03 23:25:00,
2013-04-03 18:30:00,71.4,59.5,29.89,NNW,341,9.0,16.0,66,0.00,,---,0.00,VWS V14.01,2013-04-03 23:30:00,
2013-04-03 18:35:00,70.2,58.3,29.90,NW,322,20.0,21.0,66,0.00,,---,0.00,VWS V14.01,2013-04-03 23:35:00,
2013-04-03 18:40:00,68.9,57.9,29.90,NW,304,19.0,21.0,68,0.00,,---,0.00,VWS V14.01,2013-04-03 23:40:00,
2013-04-03 18:45:00,67.7,57.6,29.91,NNW,330,18.0,21.0,70,0.00,,---,0.00,VWS V14.01,2013-04-03 23:45:00,
2013-04-03 18:50:00,66.8,57.5,29.91,NNW,327,15.0,23.0,72,0.00,,---,0.00,VWS V14.01,2013-04-03 23:50:00,
2013-04-03 18:55:00,65.7,56.8,29.92,NW,313,10.0,20.0,73,0.00,,---,0.00,VWS V14.01,2013-04-03 23:55:00,
2013-04-03 19:00:00,65.0,56.9,29.92,NW,325,6.0,14.0,75,0.00,,---,0.00,VWS V14.01,2013-04-04 00:00:00,
2013-04-03 19:05:00,64.5,56.4,29.92,North,10,10.0,17.0,75,0.00,,---,0.00,VWS V14.01,2013-04-04 00:05:00,
2013-04-03 19:10:00,64.1,56.4,29.92,North,355,4.0,11.0,76,0.00,,---,0.00,VWS V14.01,2013-04-04 00:10:00,
2013-04-03 19:15:00,63.8,56.1,29.92,NW,325,6.0,16.0,76,0.00,,---,0.00,VWS V14.01,2013-04-04 00:15:00,
2013-04-03 19:20:00,63.4,55.7,29.92,NW,325,2.0,12.0,76,0.00,,---,0.00,VWS V14.01,2013-04-04 00:20:00,
2013-04-03 19:25:00,63.1,55.8,29.93,North,355,11.0,19.0,77,0.00,,---,0.00,VWS V14.01,2013-04-04 00:25:00,
2013-04-03 19:30:00,62.8,55.5,29.93,NNW,330,3.0,14.0,77,0.00,,---,0.00,VWS V14.01,2013-04-04 00:30:00,
2013-04-03 19:35:00,62.6,55.7,29.93,NW,322,6.0,13.0,78,0.00,,---,0.00,VWS V14.01,2013-04-04 00:35:00,
2013-04-03 19:40:00,62.4,55.5,29.93,NNW,334,12.0,18.0,78,0.00,,---,0.00,VWS V14.01,2013-04-04 00:40:00,
2013-04-03 19:45:00,62.1,55.2,29.94,NNW,339,7.0,15.0,78,0.00,,---,0.00,VWS V14.01,2013-04-04 00:45:00,
2013-04-03 19:50:00,61.9,55.3,29.94,NNW,331,6.0,16.0,79,0.00,,---,0.00,VWS V14.01,2013-04-04 00:50:00,
2013-04-03 19:55:00,61.7,55.1,29.94,NNW,340,12.0,12.0,79,0.00,,---,0.00,VWS V14.01,2013-04-04 00:55:00,
2013-04-03 20:00:00,61.7,55.5,29.95,NNW,338,3.0,9.0,80,0.00,,---,0.00,VWS V14.01,2013-04-04 01:00:00,
2013-04-03 20:05:00,61.6,55.0,29.95,North,9,11.0,15.0,79,0.00,,---,0.00,VWS V14.01,2013-04-04 01:05:00,
2013-04-03 20:10:00,61.5,54.9,29.95,NNE,12,5.0,6.0,79,0.00,,---,0.00,VWS V14.01,2013-04-04 01:10:00,
2013-04-03 20:15:00,61.3,54.7,29.96,North,355,11.0,16.0,79,0.00,,---,0.00,VWS V14.01,2013-04-04 01:15:00,
2013-04-03 20:20:00,61.2,54.6,29.97,North,349,13.0,16.0,79,0.00,,---,0.00,VWS V14.01,2013-04-04 01:20:00,
2013-04-03 20:25:00,61.1,54.5,29.97,NNE,13,11.0,15.0,79,0.00,,---,0.00,VWS V14.01,2013-04-04 01:25:00,
2013-04-03 20:30:00,61.0,54.5,29.97,North,360,5.0,13.0,79,0.00,,---,0.00,VWS V14.01,2013-04-04 01:30:00,
2013-04-03 20:35:00,60.9,54.3,29.97,North,9,9.0,15.0,79,0.00,,---,0.00,VWS V14.01,2013-04-04 01:35:00,
2013-04-03 20:40:00,60.8,54.3,29.97,North,355,4.0,18.0,79,0.00,,---,0.00,VWS V14.01,2013-04-04 01:40:00,
2013-04-03 20:45:00,60.7,54.2,29.98,North,355,5.0,7.0,79,0.00,,---,0.00,VWS V14.01,2013-04-04 01:45:00,
2013-04-03 20:50:00,60.7,54.5,29.98,North,355,11.0,13.0,80,0.00,,---,0.00,VWS V14.01,2013-04-04 01:50:00,
2013-04-03 20:55:00,60.6,54.4,29.98,NNW,341,9.0,9.0,80,0.00,,---,0.00,VWS V14.01,2013-04-04 01:55:00,
2013-04-03 21:00:00,60.6,54.4,29.99,NNE,23,6.0,11.0,80,0.00,,---,0.00,VWS V14.01,2013-04-04 02:00:00,
2013-04-03 21:05:00,60.5,54.3,29.99,NNW,339,1.0,12.0,80,0.00,,---,0.00,VWS V14.01,2013-04-04 02:05:00,
2013-04-03 21:10:00,60.5,54.3,30.00,North,360,6.0,6.0,80,0.00,,---,0.00,VWS V14.01,2013-04-04 02:10:00,
2013-04-03 21:15:00,60.6,54.4,30.00,NNW,329,14.0,14.0,80,0.00,,---,0.00,VWS V14.01,2013-04-04 02:15:00,
2013-04-03 21:20:00,60.5,54.0,30.00,North,11,4.0,5.0,79,0.00,,---,0.00,VWS V14.01,2013-04-04 02:20:00,
2013-04-03 21:25:00,60.6,54.1,30.01,North,355,14.0,14.0,79,0.00,,---,0.00,VWS V14.01,2013-04-04 02:25:00,
2013-04-03 21:30:00,60.6,54.1,30.01,North,355,6.0,12.0,79,0.00,,---,0.00,VWS V14.01,2013-04-04 02:30:00,
2013-04-03 21:35:00,60.6,54.4,30.01,NNE,17,4.0,17.0,80,0.00,,---,0.00,VWS V14.01,2013-04-04 02:35:00,
2013-04-03 21:40:00,60.2,54.4,30.02,NNW,339,7.0,11.0,81,0.01,,---,0.01,VWS V14.01,2013-04-04 02:40:00,
2013-04-03 21:45:00,59.6,54.4,30.02,North,360,7.0,15.0,83,0.01,,---,0.01,VWS V14.01,2013-04-04 02:45:00,
2013-04-03 21:50:00,59.1,54.3,30.02,NW,324,7.0,10.0,84,0.01,,---,0.01,VWS V14.01,2013-04-04 02:50:00,
2013-04-03 21:55:00,58.7,53.9,30.02,NNE,31,6.0,10.0,84,0.01,,---,0.01,VWS V14.01,2013-04-04 02:55:00,
2013-04-03 22:00:00,58.6,54.1,30.03,NNE,25,13.0,15.0,85,0.01,,---,0.01,VWS V14.01,2013-04-04 03:00:00,
2013-04-03 22:05:00,58.4,53.6,30.03,North,360,11.0,11.0,84,0.01,,---,0.01,VWS V14.01,2013-04-04 03:05:00,
2013-04-03 22:10:00,58.3,53.5,30.03,NNE,22,9.0,11.0,84,0.01,,---,0.01,VWS V14.01,2013-04-04 03:10:00,
2013-04-03 22:15:00,58.3,53.5,30.04,NNE,12,10.0,13.0,84,0.01,,---,0.01,VWS V14.01,2013-04-04 03:15:00,
2013-04-03 22:20:00,58.3,53.5,30.04,North,355,3.0,5.0,84,0.01,,---,0.01,VWS V14.01,2013-04-04 03:20:00,
2013-04-03 22:25:00,58.2,53.4,30.04,NNW,330,4.0,7.0,84,0.01,,---,0.01,VWS V14.01,2013-04-04 03:25:00,
2013-04-03 22:30:00,58.1,53.0,30.05,NNE,15,11.0,11.0,83,0.01,,---,0.01,VWS V14.01,2013-04-04 03:30:00,
2013-04-03 22:35:00,58.0,52.9,30.05,NNW,331,10.0,10.0,83,0.01,,---,0.01,VWS V14.01,2013-04-04 03:35:00,
2013-04-03 22:40:00,57.9,52.8,30.05,NNW,327,4.0,6.0,83,0.00,,---,0.01,VWS V14.01,2013-04-04 03:40:00,
2013-04-03 22:45:00,57.7,52.6,30.05,NNE,15,4.0,6.0,83,0.00,,---,0.01,VWS V14.01,2013-04-04 03:45:00,
2013-04-03 22:50:00,57.6,52.5,30.05,North,11,7.0,9.0,83,0.00,,---,0.01,VWS V14.01,2013-04-04 03:50:00,
2013-04-03 22:55:00,57.3,52.2,30.05,NE,34,3.0,4.0,83,0.00,,---,0.01,VWS V14.01,2013-04-04 03:55:00,
2013-04-03 23:00:00,57.1,52.0,30.05,NNE,17,6.0,16.0,83,0.00,,---,0.01,VWS V14.01,2013-04-04 04:00:00,
2013-04-03 23:05:00,57.0,51.9,30.06,North,5,3.0,16.0,83,0.00,,---,0.01,VWS V14.01,2013-04-04 04:05:00,
2013-04-03 23:10:00,56.9,51.8,30.06,NNW,340,1.0,11.0,83,0.00,,---,0.01,VWS V14.01,2013-04-04 04:10:00,
2013-04-03 23:15:00,56.8,52.0,30.06,North,355,7.0,7.0,84,0.00,,---,0.01,VWS V14.01,2013-04-04 04:15:00,
2013-04-03 23:20:00,56.7,51.9,30.06,NNE,12,0.0,7.0,84,0.00,,---,0.01,VWS V14.01,2013-04-04 04:20:00,
2013-04-03 23:25:00,56.6,51.8,30.06,NNW,346,4.0,6.0,84,0.00,,---,0.01,VWS V14.01,2013-04-04 04:25:00,
2013-04-03 23:30:00,56.6,51.8,30.06,North,355,7.0,12.0,84,0.00,,---,0.01,VWS V14.01,2013-04-04 04:30:00,
2013-04-03 23:35:00,56.6,51.8,30.06,North,360,1.0,11.0,84,0.00,,---,0.01,VWS V14.01,2013-04-04 04:35:00,
2013-04-03 23:40:00,56.6,51.8,30.07,NNW,329,3.0,6.0,84,0.00,,---,0.01,VWS V14.01,2013-04-04 04:40:00,
2013-04-03 23:45:00,56.5,51.7,30.07,North,11,5.0,7.0,84,0.00,,---,0.01,VWS V14.01,2013-04-04 04:45:00,
2013-04-03 23:50:00,56.4,51.6,30.07,North,11,7.0,13.0,84,0.00,,---,0.01,VWS V14.01,2013-04-04 04:50:00,
2013-04-03 23:55:00,56.3,51.5,30.07,NNE,24,3.0,9.0,84,0.00,,---,0.01,VWS V14.01,2013-04-04 04:55:00,